sensor_id;sensor_type;location;lat;lon;timestamp;P1;durP1;ratioP1;P2;durP2;ratioP2
6693;SDS011;3384;42.628;23.380;2023-03-04T00:00:39;15.93;;;14.23;;
6693;SDS011;3384;42.628;23.380;2023-03-04T00:03:09;17.80;;;13.43;;
6693;SDS011;3384;42.628;23.380;2023-03-04T00:05:38;15.73;;;13.17;;
6693;SDS011;3384;42.628;23.380;2023-03-04T00:08:06;12.93;;;11.47;;
6693;SDS011;3384;42.628;23.380;2023-03-04T00:10:32;14.37;;;12.90;;
6693;SDS011;3384;42.628;23.380;2023-03-04T00:12:59;14.40;;;12.83;;
6693;SDS011;3384;42.628;23.380;2023-03-04T00:15:25;20.70;;;12.93;;
6693;SDS011;3384;42.628;23.380;2023-03-04T00:17:52;17.27;;;12.10;;
6693;SDS011;3384;42.628;23.380;2023-03-04T00:20:18;15.00;;;13.43;;
6693;SDS011;3384;42.628;23.380;2023-03-04T00:22:45;14.07;;;12.33;;
6693;SDS011;3384;42.628;23.380;2023-03-04T00:25:13;14.17;;;11.60;;
6693;SDS011;3384;42.628;23.380;2023-03-04T00:27:39;15.17;;;13.50;;
6693;SDS011;3384;42.628;23.380;2023-03-04T00:30:06;17.50;;;13.57;;
6693;SDS011;3384;42.628;23.380;2023-03-04T00:32:33;13.60;;;12.20;;
6693;SDS011;3384;42.628;23.380;2023-03-04T00:34:59;18.50;;;14.60;;
6693;SDS011;3384;42.628;23.380;2023-03-04T00:37:26;18.73;;;13.67;;
6693;SDS011;3384;42.628;23.380;2023-03-04T00:39:52;17.40;;;12.77;;
6693;SDS011;3384;42.628;23.380;2023-03-04T00:42:20;16.33;;;13.10;;
6693;SDS011;3384;42.628;23.380;2023-03-04T00:44:47;15.63;;;12.87;;
6693;SDS011;3384;42.628;23.380;2023-03-04T00:47:15;20.63;;;13.37;;
6693;SDS011;3384;42.628;23.380;2023-03-04T00:49:41;21.57;;;13.80;;
6693;SDS011;3384;42.628;23.380;2023-03-04T00:52:08;17.37;;;12.20;;
6693;SDS011;3384;42.628;23.380;2023-03-04T00:54:34;20.20;;;15.80;;
6693;SDS011;3384;42.628;23.380;2023-03-04T00:57:01;14.60;;;12.83;;
6693;SDS011;3384;42.628;23.380;2023-03-04T00:59:29;15.20;;;13.43;;
6693;SDS011;3384;42.628;23.380;2023-03-04T01:01:55;14.70;;;13.10;;
6693;SDS011;3384;42.628;23.380;2023-03-04T01:04:22;14.07;;;12.00;;
6693;SDS011;3384;42.628;23.380;2023-03-04T01:06:48;18.27;;;14.23;;
6693;SDS011;3384;42.628;23.380;2023-03-04T01:09:15;15.20;;;13.13;;
6693;SDS011;3384;42.628;23.380;2023-03-04T01:11:41;18.47;;;13.10;;
6693;SDS011;3384;42.628;23.380;2023-03-04T01:14:08;18.33;;;12.50;;
6693;SDS011;3384;42.628;23.380;2023-03-04T01:16:36;19.73;;;13.20;;
6693;SDS011;3384;42.628;23.380;2023-03-04T01:19:02;19.33;;;13.20;;
6693;SDS011;3384;42.628;23.380;2023-03-04T01:21:29;17.50;;;13.17;;
6693;SDS011;3384;42.628;23.380;2023-03-04T01:23:56;14.50;;;13.00;;
6693;SDS011;3384;42.628;23.380;2023-03-04T01:26:22;14.90;;;13.30;;
6693;SDS011;3384;42.628;23.380;2023-03-04T01:28:48;18.00;;;13.30;;
6693;SDS011;3384;42.628;23.380;2023-03-04T01:31:15;15.63;;;12.37;;
6693;SDS011;3384;42.628;23.380;2023-03-04T01:33:43;13.43;;;11.63;;
6693;SDS011;3384;42.628;23.380;2023-03-04T01:36:11;19.50;;;12.60;;
6693;SDS011;3384;42.628;23.380;2023-03-04T01:38:37;17.63;;;12.90;;
6693;SDS011;3384;42.628;23.380;2023-03-04T01:41:04;13.50;;;12.03;;
6693;SDS011;3384;42.628;23.380;2023-03-04T01:43:31;16.20;;;11.97;;
6693;SDS011;3384;42.628;23.380;2023-03-04T01:45:58;12.00;;;10.63;;
6693;SDS011;3384;42.628;23.380;2023-03-04T01:48:25;15.20;;;10.90;;
6693;SDS011;3384;42.628;23.380;2023-03-04T01:50:54;15.33;;;11.17;;
6693;SDS011;3384;42.628;23.380;2023-03-04T01:53:22;13.83;;;11.37;;
6693;SDS011;3384;42.628;23.380;2023-03-04T01:55:49;11.47;;;10.37;;
6693;SDS011;3384;42.628;23.380;2023-03-04T01:58:17;11.73;;;10.60;;
6693;SDS011;3384;42.628;23.380;2023-03-04T02:00:43;10.40;;;9.20;;
6693;SDS011;3384;42.628;23.380;2023-03-04T02:03:10;14.23;;;10.60;;
6693;SDS011;3384;42.628;23.380;2023-03-04T02:05:38;12.23;;;10.93;;
6693;SDS011;3384;42.628;23.380;2023-03-04T02:08:07;11.27;;;10.27;;
6693;SDS011;3384;42.628;23.380;2023-03-04T02:10:34;12.80;;;10.67;;
6693;SDS011;3384;42.628;23.380;2023-03-04T02:13:01;16.93;;;12.77;;
6693;SDS011;3384;42.628;23.380;2023-03-04T02:15:28;15.70;;;11.40;;
6693;SDS011;3384;42.628;23.380;2023-03-04T02:17:55;12.67;;;11.47;;
6693;SDS011;3384;42.628;23.380;2023-03-04T02:20:27;13.47;;;11.50;;
6693;SDS011;3384;42.628;23.380;2023-03-04T02:22:58;20.67;;;12.87;;
6693;SDS011;3384;42.628;23.380;2023-03-04T02:25:28;13.97;;;12.20;;
6693;SDS011;3384;42.628;23.380;2023-03-04T02:27:57;14.57;;;11.80;;
6693;SDS011;3384;42.628;23.380;2023-03-04T02:30:24;13.10;;;11.73;;
6693;SDS011;3384;42.628;23.380;2023-03-04T02:32:50;15.60;;;11.23;;
6693;SDS011;3384;42.628;23.380;2023-03-04T02:35:17;19.17;;;11.70;;
6693;SDS011;3384;42.628;23.380;2023-03-04T02:37:44;12.60;;;11.40;;
6693;SDS011;3384;42.628;23.380;2023-03-04T02:40:12;13.20;;;11.83;;
6693;SDS011;3384;42.628;23.380;2023-03-04T02:42:41;11.80;;;10.60;;
6693;SDS011;3384;42.628;23.380;2023-03-04T02:47:50;16.40;;;12.73;;
6693;SDS011;3384;42.628;23.380;2023-03-04T02:50:17;13.80;;;11.30;;
6693;SDS011;3384;42.628;23.380;2023-03-04T02:52:44;15.10;;;11.00;;
6693;SDS011;3384;42.628;23.380;2023-03-04T02:55:10;12.73;;;11.33;;
6693;SDS011;3384;42.628;23.380;2023-03-04T02:57:37;12.30;;;11.00;;
6693;SDS011;3384;42.628;23.380;2023-03-04T03:00:03;15.80;;;11.83;;
6693;SDS011;3384;42.628;23.380;2023-03-04T03:02:30;11.90;;;10.77;;
6693;SDS011;3384;42.628;23.380;2023-03-04T03:04:58;12.40;;;10.87;;
6693;SDS011;3384;42.628;23.380;2023-03-04T03:07:24;13.90;;;11.67;;
6693;SDS011;3384;42.628;23.380;2023-03-04T03:09:51;13.33;;;11.50;;
6693;SDS011;3384;42.628;23.380;2023-03-04T03:12:17;13.83;;;11.40;;
6693;SDS011;3384;42.628;23.380;2023-03-04T03:14:44;13.27;;;11.60;;
6693;SDS011;3384;42.628;23.380;2023-03-04T03:17:11;15.33;;;10.57;;
6693;SDS011;3384;42.628;23.380;2023-03-04T03:19:37;14.87;;;10.10;;
6693;SDS011;3384;42.628;23.380;2023-03-04T03:22:05;18.87;;;12.00;;
6693;SDS011;3384;42.628;23.380;2023-03-04T03:24:31;17.77;;;12.50;;
6693;SDS011;3384;42.628;23.380;2023-03-04T03:26:58;13.17;;;10.90;;
6693;SDS011;3384;42.628;23.380;2023-03-04T03:29:24;12.90;;;9.83;;
6693;SDS011;3384;42.628;23.380;2023-03-04T03:31:51;15.17;;;11.53;;
6693;SDS011;3384;42.628;23.380;2023-03-04T03:34:17;11.30;;;9.97;;
6693;SDS011;3384;42.628;23.380;2023-03-04T03:36:44;15.77;;;11.90;;
6693;SDS011;3384;42.628;23.380;2023-03-04T03:39:12;9.33;;;8.57;;
6693;SDS011;3384;42.628;23.380;2023-03-04T03:41:39;12.00;;;7.80;;
6693;SDS011;3384;42.628;23.380;2023-03-04T03:44:06;5.70;;;5.30;;
6693;SDS011;3384;42.628;23.380;2023-03-04T03:46:32;5.97;;;5.57;;
6693;SDS011;3384;42.628;23.380;2023-03-04T03:48:59;8.83;;;8.03;;
6693;SDS011;3384;42.628;23.380;2023-03-04T03:51:25;10.83;;;8.97;;
6693;SDS011;3384;42.628;23.380;2023-03-04T03:53:52;11.90;;;10.70;;
6693;SDS011;3384;42.628;23.380;2023-03-04T03:56:20;19.63;;;11.87;;
6693;SDS011;3384;42.628;23.380;2023-03-04T03:58:46;13.00;;;10.40;;
6693;SDS011;3384;42.628;23.380;2023-03-04T04:01:13;13.23;;;10.23;;
6693;SDS011;3384;42.628;23.380;2023-03-04T04:03:39;13.20;;;9.90;;
6693;SDS011;3384;42.628;23.380;2023-03-04T04:06:06;13.70;;;11.00;;
6693;SDS011;3384;42.628;23.380;2023-03-04T04:08:32;15.80;;;11.30;;
6693;SDS011;3384;42.628;23.380;2023-03-04T04:10:59;14.27;;;10.20;;
6693;SDS011;3384;42.628;23.380;2023-03-04T04:13:27;13.73;;;11.00;;
6693;SDS011;3384;42.628;23.380;2023-03-04T04:15:53;11.93;;;10.73;;
6693;SDS011;3384;42.628;23.380;2023-03-04T04:18:20;14.33;;;11.13;;
6693;SDS011;3384;42.628;23.380;2023-03-04T04:20:47;17.70;;;12.03;;
6693;SDS011;3384;42.628;23.380;2023-03-04T04:23:14;13.60;;;11.37;;
6693;SDS011;3384;42.628;23.380;2023-03-04T04:25:40;13.37;;;11.90;;
6693;SDS011;3384;42.628;23.380;2023-03-04T04:28:07;12.20;;;10.33;;
6693;SDS011;3384;42.628;23.380;2023-03-04T04:30:35;14.40;;;11.10;;
6693;SDS011;3384;42.628;23.380;2023-03-04T04:33:01;13.67;;;9.80;;
6693;SDS011;3384;42.628;23.380;2023-03-04T04:35:28;14.97;;;10.47;;
6693;SDS011;3384;42.628;23.380;2023-03-04T04:37:55;13.90;;;11.30;;
6693;SDS011;3384;42.628;23.380;2023-03-04T04:40:22;12.20;;;10.90;;
6693;SDS011;3384;42.628;23.380;2023-03-04T04:42:48;12.77;;;10.60;;
6693;SDS011;3384;42.628;23.380;2023-03-04T04:45:15;10.70;;;9.60;;
6693;SDS011;3384;42.628;23.380;2023-03-04T04:47:43;11.83;;;9.60;;
6693;SDS011;3384;42.628;23.380;2023-03-04T04:50:10;12.37;;;10.47;;
6693;SDS011;3384;42.628;23.380;2023-03-04T04:52:36;14.17;;;9.27;;
6693;SDS011;3384;42.628;23.380;2023-03-04T04:55:03;16.60;;;9.60;;
6693;SDS011;3384;42.628;23.380;2023-03-04T04:57:30;8.63;;;7.83;;
6693;SDS011;3384;42.628;23.380;2023-03-04T04:59:56;8.90;;;8.00;;
6693;SDS011;3384;42.628;23.380;2023-03-04T05:02:23;8.90;;;8.10;;
6693;SDS011;3384;42.628;23.380;2023-03-04T05:04:51;9.27;;;8.30;;
6693;SDS011;3384;42.628;23.380;2023-03-04T05:07:17;8.83;;;7.53;;
6693;SDS011;3384;42.628;23.380;2023-03-04T05:09:44;11.63;;;8.80;;
6693;SDS011;3384;42.628;23.380;2023-03-04T05:12:11;11.50;;;8.60;;
6693;SDS011;3384;42.628;23.380;2023-03-04T05:14:37;10.13;;;7.53;;
6693;SDS011;3384;42.628;23.380;2023-03-04T05:17:03;13.90;;;8.20;;
6693;SDS011;3384;42.628;23.380;2023-03-04T05:19:30;8.17;;;7.43;;
6693;SDS011;3384;42.628;23.380;2023-03-04T05:21:58;8.40;;;6.43;;
6693;SDS011;3384;42.628;23.380;2023-03-04T05:24:24;10.93;;;7.23;;
6693;SDS011;3384;42.628;23.380;2023-03-04T05:26:51;8.70;;;7.90;;
6693;SDS011;3384;42.628;23.380;2023-03-04T05:29:17;8.37;;;7.57;;
6693;SDS011;3384;42.628;23.380;2023-03-04T05:31:44;13.23;;;8.63;;
6693;SDS011;3384;42.628;23.380;2023-03-04T05:34:10;8.00;;;7.20;;
6693;SDS011;3384;42.628;23.380;2023-03-04T05:36:37;8.97;;;8.17;;
6693;SDS011;3384;42.628;23.380;2023-03-04T05:39:05;7.70;;;7.10;;
6693;SDS011;3384;42.628;23.380;2023-03-04T05:41:31;8.20;;;7.37;;
6693;SDS011;3384;42.628;23.380;2023-03-04T05:43:58;9.27;;;8.50;;
6693;SDS011;3384;42.628;23.380;2023-03-04T05:46:24;7.23;;;6.77;;
6693;SDS011;3384;42.628;23.380;2023-03-04T05:48:51;7.63;;;7.07;;
6693;SDS011;3384;42.628;23.380;2023-03-04T05:51:18;10.40;;;7.43;;
6693;SDS011;3384;42.628;23.380;2023-03-04T05:53:44;9.17;;;8.30;;
6693;SDS011;3384;42.628;23.380;2023-03-04T05:56:13;10.60;;;8.47;;
6693;SDS011;3384;42.628;23.380;2023-03-04T05:58:40;9.30;;;7.93;;
6693;SDS011;3384;42.628;23.380;2023-03-04T06:01:07;7.47;;;6.83;;
6693;SDS011;3384;42.628;23.380;2023-03-04T06:03:34;9.33;;;8.53;;
6693;SDS011;3384;42.628;23.380;2023-03-04T06:06:00;7.43;;;6.83;;
6693;SDS011;3384;42.628;23.380;2023-03-04T06:08:27;7.30;;;6.67;;
6693;SDS011;3384;42.628;23.380;2023-03-04T06:10:54;11.43;;;8.33;;
6693;SDS011;3384;42.628;23.380;2023-03-04T06:13:22;9.30;;;7.07;;
6693;SDS011;3384;42.628;23.380;2023-03-04T06:15:52;9.03;;;8.17;;
6693;SDS011;3384;42.628;23.380;2023-03-04T06:18:19;8.37;;;7.57;;
6693;SDS011;3384;42.628;23.380;2023-03-04T06:20:45;7.97;;;7.33;;
6693;SDS011;3384;42.628;23.380;2023-03-04T06:23:12;6.83;;;6.33;;
6693;SDS011;3384;42.628;23.380;2023-03-04T06:25:38;8.47;;;7.77;;
6693;SDS011;3384;42.628;23.380;2023-03-04T06:28:05;10.90;;;7.50;;
6693;SDS011;3384;42.628;23.380;2023-03-04T06:30:32;9.37;;;8.60;;
6693;SDS011;3384;42.628;23.380;2023-03-04T06:32:59;12.53;;;8.23;;
6693;SDS011;3384;42.628;23.380;2023-03-04T06:35:25;8.47;;;7.77;;
6693;SDS011;3384;42.628;23.380;2023-03-04T06:37:52;9.00;;;7.30;;
6693;SDS011;3384;42.628;23.380;2023-03-04T06:40:19;10.30;;;7.97;;
6693;SDS011;3384;42.628;23.380;2023-03-04T06:42:45;11.57;;;7.10;;
6693;SDS011;3384;42.628;23.380;2023-03-04T06:45:12;9.73;;;8.73;;
6693;SDS011;3384;42.628;23.380;2023-03-04T06:47:40;10.23;;;8.10;;
6693;SDS011;3384;42.628;23.380;2023-03-04T06:50:07;9.70;;;8.70;;
6693;SDS011;3384;42.628;23.380;2023-03-04T06:52:36;13.47;;;8.07;;
6693;SDS011;3384;42.628;23.380;2023-03-04T06:55:02;11.03;;;8.60;;
6693;SDS011;3384;42.628;23.380;2023-03-04T06:57:29;9.40;;;8.50;;
6693;SDS011;3384;42.628;23.380;2023-03-04T06:59:55;9.40;;;8.57;;
6693;SDS011;3384;42.628;23.380;2023-03-04T07:02:22;10.10;;;8.97;;
6693;SDS011;3384;42.628;23.380;2023-03-04T07:04:50;10.83;;;9.23;;
6693;SDS011;3384;42.628;23.380;2023-03-04T07:07:16;8.97;;;8.03;;
6693;SDS011;3384;42.628;23.380;2023-03-04T07:09:43;11.80;;;10.47;;
6693;SDS011;3384;42.628;23.380;2023-03-04T07:12:09;11.33;;;10.17;;
6693;SDS011;3384;42.628;23.380;2023-03-04T07:14:36;13.20;;;11.40;;
6693;SDS011;3384;42.628;23.380;2023-03-04T07:17:02;20.43;;;11.57;;
6693;SDS011;3384;42.628;23.380;2023-03-04T07:19:29;28.40;;;14.97;;
6693;SDS011;3384;42.628;23.380;2023-03-04T07:21:57;17.43;;;15.03;;
6693;SDS011;3384;42.628;23.380;2023-03-04T07:24:23;15.97;;;12.70;;
6693;SDS011;3384;42.628;23.380;2023-03-04T07:26:50;17.20;;;12.70;;
6693;SDS011;3384;42.628;23.380;2023-03-04T07:29:16;19.67;;;13.73;;
6693;SDS011;3384;42.628;23.380;2023-03-04T07:31:43;17.73;;;12.73;;
6693;SDS011;3384;42.628;23.380;2023-03-04T07:34:11;16.90;;;14.73;;
6693;SDS011;3384;42.628;23.380;2023-03-04T07:36:38;20.93;;;13.90;;
6693;SDS011;3384;42.628;23.380;2023-03-04T07:39:06;20.27;;;14.27;;
6693;SDS011;3384;42.628;23.380;2023-03-04T07:41:32;25.17;;;14.27;;
6693;SDS011;3384;42.628;23.380;2023-03-04T07:44:00;23.20;;;14.93;;
6693;SDS011;3384;42.628;23.380;2023-03-04T07:46:27;22.93;;;15.27;;
6693;SDS011;3384;42.628;23.380;2023-03-04T07:48:54;35.33;;;16.20;;
6693;SDS011;3384;42.628;23.380;2023-03-04T07:51:21;25.70;;;15.37;;
6693;SDS011;3384;42.628;23.380;2023-03-04T07:53:48;26.03;;;15.87;;
6693;SDS011;3384;42.628;23.380;2023-03-04T07:56:17;24.57;;;15.27;;
6693;SDS011;3384;42.628;23.380;2023-03-04T07:58:44;25.00;;;14.90;;
6693;SDS011;3384;42.628;23.380;2023-03-04T08:01:11;27.83;;;16.80;;
6693;SDS011;3384;42.628;23.380;2023-03-04T08:03:38;24.23;;;15.13;;
6693;SDS011;3384;42.628;23.380;2023-03-04T08:06:05;24.23;;;16.00;;
6693;SDS011;3384;42.628;23.380;2023-03-04T08:08:32;18.00;;;13.47;;
6693;SDS011;3384;42.628;23.380;2023-03-04T08:10:58;26.33;;;14.83;;
6693;SDS011;3384;42.628;23.380;2023-03-04T08:13:29;22.83;;;13.07;;
6693;SDS011;3384;42.628;23.380;2023-03-04T08:16:04;21.03;;;13.43;;
6693;SDS011;3384;42.628;23.380;2023-03-04T08:18:31;20.20;;;13.43;;
6693;SDS011;3384;42.628;23.380;2023-03-04T08:20:58;22.50;;;12.97;;
6693;SDS011;3384;42.628;23.380;2023-03-04T08:23:24;24.00;;;14.93;;
6693;SDS011;3384;42.628;23.380;2023-03-04T08:25:51;23.70;;;13.90;;
6693;SDS011;3384;42.628;23.380;2023-03-04T08:28:17;17.00;;;13.10;;
6693;SDS011;3384;42.628;23.380;2023-03-04T08:30:50;19.73;;;13.17;;
6693;SDS011;3384;42.628;23.380;2023-03-04T08:33:17;23.97;;;13.40;;
6693;SDS011;3384;42.628;23.380;2023-03-04T08:35:43;19.47;;;13.37;;
6693;SDS011;3384;42.628;23.380;2023-03-04T08:38:10;15.67;;;12.87;;
6693;SDS011;3384;42.628;23.380;2023-03-04T08:40:36;30.97;;;13.33;;
6693;SDS011;3384;42.628;23.380;2023-03-04T08:43:03;27.53;;;14.20;;
6693;SDS011;3384;42.628;23.380;2023-03-04T08:45:29;16.97;;;12.67;;
6693;SDS011;3384;42.628;23.380;2023-03-04T08:47:57;17.37;;;12.77;;
6693;SDS011;3384;42.628;23.380;2023-03-04T08:50:24;18.93;;;14.07;;
6693;SDS011;3384;42.628;23.380;2023-03-04T08:52:51;18.67;;;14.47;;
6693;SDS011;3384;42.628;23.380;2023-03-04T08:55:18;21.20;;;14.07;;
6693;SDS011;3384;42.628;23.380;2023-03-04T08:57:44;28.40;;;13.70;;
6693;SDS011;3384;42.628;23.380;2023-03-04T09:00:11;16.17;;;13.27;;
6693;SDS011;3384;42.628;23.380;2023-03-04T09:02:40;16.67;;;13.87;;
6693;SDS011;3384;42.628;23.380;2023-03-04T09:05:08;16.07;;;11.37;;
6693;SDS011;3384;42.628;23.380;2023-03-04T09:07:35;13.77;;;11.70;;
6693;SDS011;3384;42.628;23.380;2023-03-04T09:10:01;16.13;;;11.07;;
6693;SDS011;3384;42.628;23.380;2023-03-04T09:12:28;23.53;;;11.90;;
6693;SDS011;3384;42.628;23.380;2023-03-04T09:14:54;16.00;;;12.93;;
6693;SDS011;3384;42.628;23.380;2023-03-04T09:17:21;14.33;;;12.00;;
6693;SDS011;3384;42.628;23.380;2023-03-04T09:19:47;19.23;;;11.83;;
6693;SDS011;3384;42.628;23.380;2023-03-04T09:22:30;16.50;;;11.70;;
6693;SDS011;3384;42.628;23.380;2023-03-04T09:25:23;15.37;;;10.90;;
6693;SDS011;3384;42.628;23.380;2023-03-04T09:27:50;11.27;;;10.13;;
6693;SDS011;3384;42.628;23.380;2023-03-04T09:30:17;19.20;;;10.57;;
6693;SDS011;3384;42.628;23.380;2023-03-04T09:32:43;17.57;;;12.47;;
6693;SDS011;3384;42.628;23.380;2023-03-04T09:35:10;15.70;;;11.63;;
6693;SDS011;3384;42.628;23.380;2023-03-04T09:37:38;11.53;;;9.90;;
6693;SDS011;3384;42.628;23.380;2023-03-04T09:40:05;20.07;;;14.07;;
6693;SDS011;3384;42.628;23.380;2023-03-04T09:42:32;24.23;;;16.77;;
6693;SDS011;3384;42.628;23.380;2023-03-04T09:45:00;21.90;;;15.10;;
6693;SDS011;3384;42.628;23.380;2023-03-04T09:47:27;24.07;;;16.50;;
6693;SDS011;3384;42.628;23.380;2023-03-04T09:49:55;21.50;;;16.27;;
6693;SDS011;3384;42.628;23.380;2023-03-04T09:52:26;19.07;;;16.27;;
6693;SDS011;3384;42.628;23.380;2023-03-04T09:55:02;20.07;;;15.00;;
6693;SDS011;3384;42.628;23.380;2023-03-04T09:57:35;22.50;;;15.80;;
6693;SDS011;3384;42.628;23.380;2023-03-04T10:00:07;27.43;;;17.57;;
6693;SDS011;3384;42.628;23.380;2023-03-04T10:02:45;20.40;;;15.97;;
6693;SDS011;3384;42.628;23.380;2023-03-04T10:05:16;20.70;;;15.80;;
6693;SDS011;3384;42.628;23.380;2023-03-04T10:07:45;25.37;;;15.20;;
6693;SDS011;3384;42.628;23.380;2023-03-04T10:10:14;20.03;;;14.80;;
6693;SDS011;3384;42.628;23.380;2023-03-04T10:12:42;27.53;;;14.53;;
6693;SDS011;3384;42.628;23.380;2023-03-04T10:15:16;19.37;;;13.30;;
6693;SDS011;3384;42.628;23.380;2023-03-04T10:17:44;21.30;;;14.60;;
6693;SDS011;3384;42.628;23.380;2023-03-04T10:20:14;23.03;;;15.13;;
6693;SDS011;3384;42.628;23.380;2023-03-04T10:22:44;17.30;;;13.63;;
6693;SDS011;3384;42.628;23.380;2023-03-04T10:25:17;22.27;;;15.53;;
6693;SDS011;3384;42.628;23.380;2023-03-04T10:27:50;20.03;;;15.70;;
6693;SDS011;3384;42.628;23.380;2023-03-04T10:30:18;20.13;;;15.63;;
6693;SDS011;3384;42.628;23.380;2023-03-04T10:32:46;28.87;;;15.67;;
6693;SDS011;3384;42.628;23.380;2023-03-04T10:35:13;23.23;;;15.87;;
6693;SDS011;3384;42.628;23.380;2023-03-04T10:37:43;18.87;;;13.90;;
6693;SDS011;3384;42.628;23.380;2023-03-04T10:40:18;19.73;;;13.17;;
6693;SDS011;3384;42.628;23.380;2023-03-04T10:42:45;22.60;;;16.00;;
6693;SDS011;3384;42.628;23.380;2023-03-04T10:45:18;21.97;;;14.83;;
6693;SDS011;3384;42.628;23.380;2023-03-04T10:47:50;23.90;;;16.00;;
6693;SDS011;3384;42.628;23.380;2023-03-04T10:50:20;22.47;;;14.20;;
6693;SDS011;3384;42.628;23.380;2023-03-04T10:52:47;20.10;;;16.27;;
6693;SDS011;3384;42.628;23.380;2023-03-04T10:55:18;26.83;;;15.70;;
6693;SDS011;3384;42.628;23.380;2023-03-04T10:57:48;22.80;;;16.27;;
6693;SDS011;3384;42.628;23.380;2023-03-04T11:00:23;27.33;;;16.57;;
6693;SDS011;3384;42.628;23.380;2023-03-04T11:02:50;19.53;;;14.37;;
6693;SDS011;3384;42.628;23.380;2023-03-04T11:05:17;20.07;;;14.80;;
6693;SDS011;3384;42.628;23.380;2023-03-04T11:07:45;25.43;;;14.10;;
6693;SDS011;3384;42.628;23.380;2023-03-04T11:10:15;23.60;;;14.80;;
6693;SDS011;3384;42.628;23.380;2023-03-04T11:12:47;21.80;;;15.30;;
6693;SDS011;3384;42.628;23.380;2023-03-04T11:15:16;25.50;;;16.33;;
6693;SDS011;3384;42.628;23.380;2023-03-04T11:17:44;30.60;;;16.63;;
6693;SDS011;3384;42.628;23.380;2023-03-04T11:20:13;24.97;;;16.37;;
6693;SDS011;3384;42.628;23.380;2023-03-04T11:22:42;24.50;;;17.00;;
6693;SDS011;3384;42.628;23.380;2023-03-04T11:25:15;21.50;;;15.10;;
6693;SDS011;3384;42.628;23.380;2023-03-04T11:27:47;17.47;;;14.93;;
6693;SDS011;3384;42.628;23.380;2023-03-04T11:33:15;25.63;;;16.90;;
6693;SDS011;3384;42.628;23.380;2023-03-04T11:35:48;27.83;;;16.57;;
6693;SDS011;3384;42.628;23.380;2023-03-04T11:38:17;22.57;;;16.97;;
6693;SDS011;3384;42.628;23.380;2023-03-04T11:40:45;24.47;;;16.87;;
6693;SDS011;3384;42.628;23.380;2023-03-04T11:43:16;22.73;;;15.93;;
6693;SDS011;3384;42.628;23.380;2023-03-04T11:48:29;19.67;;;15.10;;
6693;SDS011;3384;42.628;23.380;2023-03-04T11:51:00;22.30;;;14.53;;
6693;SDS011;3384;42.628;23.380;2023-03-04T11:53:31;25.70;;;16.93;;
6693;SDS011;3384;42.628;23.380;2023-03-04T11:56:02;19.10;;;14.50;;
6693;SDS011;3384;42.628;23.380;2023-03-04T11:58:49;18.57;;;13.63;;
6693;SDS011;3384;42.628;23.380;2023-03-04T12:01:21;21.93;;;13.83;;
6693;SDS011;3384;42.628;23.380;2023-03-04T12:06:39;19.57;;;15.50;;
6693;SDS011;3384;42.628;23.380;2023-03-04T12:11:50;19.60;;;13.83;;
6693;SDS011;3384;42.628;23.380;2023-03-04T12:14:21;19.33;;;14.10;;
6693;SDS011;3384;42.628;23.380;2023-03-04T12:16:52;20.73;;;14.30;;
6693;SDS011;3384;42.628;23.380;2023-03-04T12:19:25;14.93;;;11.60;;
6693;SDS011;3384;42.628;23.380;2023-03-04T12:22:04;23.27;;;14.40;;
6693;SDS011;3384;42.628;23.380;2023-03-04T12:24:38;21.83;;;13.97;;
6693;SDS011;3384;42.628;23.380;2023-03-04T12:27:07;18.67;;;15.00;;
6693;SDS011;3384;42.628;23.380;2023-03-04T12:29:38;25.60;;;16.50;;
6693;SDS011;3384;42.628;23.380;2023-03-04T12:32:07;21.40;;;13.13;;
6693;SDS011;3384;42.628;23.380;2023-03-04T12:34:43;19.53;;;13.87;;
6693;SDS011;3384;42.628;23.380;2023-03-04T12:40:07;19.17;;;13.80;;
6693;SDS011;3384;42.628;23.380;2023-03-04T12:42:39;24.60;;;15.37;;
6693;SDS011;3384;42.628;23.380;2023-03-04T12:45:14;21.73;;;13.90;;
6693;SDS011;3384;42.628;23.380;2023-03-04T12:47:45;23.03;;;13.63;;
6693;SDS011;3384;42.628;23.380;2023-03-04T12:50:20;20.30;;;14.67;;
6693;SDS011;3384;42.628;23.380;2023-03-04T12:52:50;26.63;;;15.07;;
6693;SDS011;3384;42.628;23.380;2023-03-04T12:55:21;26.30;;;13.13;;
6693;SDS011;3384;42.628;23.380;2023-03-04T12:57:49;23.83;;;15.03;;
6693;SDS011;3384;42.628;23.380;2023-03-04T13:00:20;26.23;;;15.17;;
6693;SDS011;3384;42.628;23.380;2023-03-04T13:02:54;19.80;;;12.93;;
6693;SDS011;3384;42.628;23.380;2023-03-04T13:05:25;29.47;;;13.00;;
6693;SDS011;3384;42.628;23.380;2023-03-04T13:07:57;24.47;;;14.63;;
6693;SDS011;3384;42.628;23.380;2023-03-04T13:10:26;20.63;;;13.77;;
6693;SDS011;3384;42.628;23.380;2023-03-04T13:12:53;20.93;;;13.43;;
6693;SDS011;3384;42.628;23.380;2023-03-04T13:15:29;17.27;;;14.20;;
6693;SDS011;3384;42.628;23.380;2023-03-04T13:17:57;32.33;;;15.90;;
6693;SDS011;3384;42.628;23.380;2023-03-04T13:20:31;25.67;;;13.40;;
6693;SDS011;3384;42.628;23.380;2023-03-04T13:22:58;22.47;;;13.63;;
6693;SDS011;3384;42.628;23.380;2023-03-04T13:25:30;19.43;;;12.63;;
6693;SDS011;3384;42.628;23.380;2023-03-04T13:28:17;23.90;;;15.23;;
6693;SDS011;3384;42.628;23.380;2023-03-04T13:34:02;25.50;;;15.40;;
6693;SDS011;3384;42.628;23.380;2023-03-04T13:39:24;22.73;;;16.07;;
6693;SDS011;3384;42.628;23.380;2023-03-04T13:41:51;22.50;;;16.50;;
6693;SDS011;3384;42.628;23.380;2023-03-04T13:47:08;32.20;;;14.90;;
6693;SDS011;3384;42.628;23.380;2023-03-04T13:49:36;27.13;;;16.80;;
6693;SDS011;3384;42.628;23.380;2023-03-04T13:54:44;25.47;;;14.47;;
6693;SDS011;3384;42.628;23.380;2023-03-04T13:57:14;25.23;;;15.87;;
6693;SDS011;3384;42.628;23.380;2023-03-04T13:59:42;25.80;;;15.70;;
6693;SDS011;3384;42.628;23.380;2023-03-04T14:02:10;19.17;;;15.10;;
6693;SDS011;3384;42.628;23.380;2023-03-04T14:04:41;28.33;;;14.33;;
6693;SDS011;3384;42.628;23.380;2023-03-04T14:07:23;23.23;;;15.47;;
6693;SDS011;3384;42.628;23.380;2023-03-04T14:09:54;21.33;;;14.20;;
6693;SDS011;3384;42.628;23.380;2023-03-04T14:12:20;17.77;;;13.87;;
6693;SDS011;3384;42.628;23.380;2023-03-04T14:14:48;20.07;;;13.40;;
6693;SDS011;3384;42.628;23.380;2023-03-04T14:17:16;20.70;;;14.73;;
6693;SDS011;3384;42.628;23.380;2023-03-04T14:19:45;19.03;;;14.13;;
6693;SDS011;3384;42.628;23.380;2023-03-04T14:22:19;21.30;;;14.33;;
6693;SDS011;3384;42.628;23.380;2023-03-04T14:24:54;21.47;;;15.30;;
6693;SDS011;3384;42.628;23.380;2023-03-04T14:27:20;21.57;;;14.93;;
6693;SDS011;3384;42.628;23.380;2023-03-04T14:29:53;22.40;;;15.20;;
6693;SDS011;3384;42.628;23.380;2023-03-04T14:32:20;24.20;;;16.70;;
6693;SDS011;3384;42.628;23.380;2023-03-04T14:34:48;20.43;;;13.97;;
6693;SDS011;3384;42.628;23.380;2023-03-04T14:37:18;18.40;;;14.50;;
6693;SDS011;3384;42.628;23.380;2023-03-04T14:39:45;23.33;;;14.40;;
6693;SDS011;3384;42.628;23.380;2023-03-04T14:42:12;18.40;;;14.53;;
6693;SDS011;3384;42.628;23.380;2023-03-04T14:44:40;20.83;;;14.20;;
6693;SDS011;3384;42.628;23.380;2023-03-04T14:47:09;21.20;;;14.70;;
6693;SDS011;3384;42.628;23.380;2023-03-04T14:49:37;22.70;;;14.13;;
6693;SDS011;3384;42.628;23.380;2023-03-04T14:52:05;25.63;;;15.70;;
6693;SDS011;3384;42.628;23.380;2023-03-04T14:54:33;21.47;;;15.30;;
6693;SDS011;3384;42.628;23.380;2023-03-04T14:57:00;26.90;;;15.83;;
6693;SDS011;3384;42.628;23.380;2023-03-04T14:59:31;16.73;;;14.67;;
6693;SDS011;3384;42.628;23.380;2023-03-04T15:02:15;20.37;;;15.63;;
6693;SDS011;3384;42.628;23.380;2023-03-04T15:04:43;27.47;;;14.93;;
6693;SDS011;3384;42.628;23.380;2023-03-04T15:07:15;22.87;;;15.57;;
6693;SDS011;3384;42.628;23.380;2023-03-04T15:09:48;24.20;;;14.03;;
6693;SDS011;3384;42.628;23.380;2023-03-04T15:12:20;23.03;;;14.70;;